Time;durP1;ratioP1;P1;durP2;ratioP2;P2;SDS_P1;SDS_P2;PMS_P1;PMS_P2;Temp;Humidity;BMP_temperature;BMP_pressure;BME280_temperature;BME280_humidity;BME280_pressure;Samples;Min_cycle;Max_cycle;Signal;HPM_P1;HPM_P2
2023/10/24 00:01:30;;;;;;;4.82;4.32;;;14.00;99.90;;;;;;5016157;28;20290;-75
2023/10/24 00:03:57;;;;;;;4.82;4.43;;;14.00;99.90;;;;;;5022642;28;20219;-74
2023/10/24 00:06:25;;;;;;;4.68;4.28;;;13.90;99.90;;;;;;5022080;28;20277;-75
2023/10/24 00:08:52;;;;;;;7.78;5.35;;;13.90;99.90;;;;;;5022572;28;20519;-74
2023/10/24 00:11:20;;;;;;;5.18;4.65;;;13.90;99.90;;;;;;5004323;28;20199;-75
2023/10/24 00:13:47;;;;;;;4.82;4.43;;;13.90;99.90;;;;;;5020851;28;20206;-75
2023/10/24 00:16:14;;;;;;;4.57;4.18;;;13.90;99.90;;;;;;5006870;28;20239;-74
2023/10/24 00:18:41;;;;;;;5.38;4.78;;;13.90;99.90;;;;;;5026618;28;20711;-75
2023/10/24 00:21:08;;;;;;;5.28;4.72;;;13.90;99.90;;;;;;5023433;28;20265;-74
2023/10/24 00:23:37;;;;;;;5.38;4.63;;;14.00;99.90;;;;;;5028156;28;20199;-74
2023/10/24 00:26:04;;;;;;;4.75;4.35;;;14.00;99.90;;;;;;5023301;28;20639;-75
2023/10/24 00:28:33;;;;;;;4.38;3.97;;;14.00;99.90;;;;;;5024595;28;20220;-75
2023/10/24 00:31:01;;;;;;;5.00;4.50;;;14.00;99.90;;;;;;5025957;28;20231;-74
2023/10/24 00:33:28;;;;;;;4.85;4.45;;;14.00;99.90;;;;;;5026665;28;20204;-74
2023/10/24 00:35:55;;;;;;;5.15;4.60;;;14.00;99.90;;;;;;5026906;28;20636;-74
2023/10/24 00:38:22;;;;;;;5.05;4.57;;;14.00;99.90;;;;;;5024428;28;20765;-75
2023/10/24 00:40:50;;;;;;;5.20;4.75;;;13.90;99.90;;;;;;5028245;28;20229;-76
2023/10/24 00:43:17;;;;;;;4.95;4.45;;;13.90;99.90;;;;;;5026388;28;20208;-75
2023/10/24 00:45:45;;;;;;;4.85;4.45;;;14.00;99.90;;;;;;5026551;28;20261;-75
2023/10/24 00:48:12;;;;;;;7.15;4.70;;;14.00;99.90;;;;;;5026172;28;20234;-76
2023/10/24 00:50:40;;;;;;;4.85;4.35;;;14.00;99.90;;;;;;5026880;28;20216;-76
2023/10/24 00:53:07;;;;;;;4.43;4.00;;;14.00;99.90;;;;;;5027029;28;20203;-75
2023/10/24 00:55:38;;;;;;;5.60;5.05;;;14.00;99.90;;;;;;5026809;28;20203;-75
2023/10/24 00:58:08;;;;;;;4.82;4.43;;;14.00;99.90;;;;;;5024359;28;20306;-75
2023/10/24 01:00:36;;;;;;;4.25;3.78;;;14.00;99.90;;;;;;5028902;28;20200;-74
2023/10/24 01:03:04;;;;;;;5.10;4.70;;;14.00;99.90;;;;;;5027720;28;20215;-75
2023/10/24 01:05:32;;;;;;;4.53;4.07;;;14.00;99.90;;;;;;5027326;28;20210;-73
2023/10/24 01:07:59;;;;;;;6.15;5.35;;;14.00;99.90;;;;;;5027766;28;20683;-74
2023/10/24 01:10:27;;;;;;;6.40;5.90;;;13.90;99.90;;;;;;5023008;28;20314;-74
2023/10/24 01:12:54;;;;;;;6.70;6.10;;;13.80;99.90;;;;;;5025436;28;20196;-74
2023/10/24 01:15:23;;;;;;;5.70;5.10;;;13.70;99.90;;;;;;5028781;28;20671;-74
2023/10/24 01:17:51;;;;;;;5.57;5.13;;;13.70;99.90;;;;;;5024550;28;20293;-75
2023/10/24 01:20:18;;;;;;;5.30;4.80;;;13.70;99.90;;;;;;5025819;28;20200;-74
2023/10/24 01:22:47;;;;;;;6.70;6.10;;;13.70;99.90;;;;;;5026635;28;20199;-75
2023/10/24 01:25:15;;;;;;;7.03;6.32;;;13.70;99.90;;;;;;5026525;28;20784;-75
2023/10/24 01:27:45;;;;;;;6.75;6.15;;;13.80;99.90;;;;;;5025746;28;20204;-74
2023/10/24 01:30:13;;;;;;;6.68;5.97;;;13.70;99.90;;;;;;5025633;28;20255;-74
2023/10/24 01:32:41;;;;;;;6.18;5.57;;;13.80;99.90;;;;;;5025904;28;20290;-74
2023/10/24 01:35:09;;;;;;;5.72;5.13;;;13.80;99.90;;;;;;5027295;28;20281;-74
2023/10/24 01:37:36;;;;;;;5.78;5.28;;;13.90;99.90;;;;;;5023008;28;20196;-74
2023/10/24 01:40:06;;;;;;;5.75;5.25;;;13.90;99.90;;;;;;5028239;28;20192;-75
2023/10/24 01:42:32;;;;;;;5.47;4.97;;;13.90;99.90;;;;;;5025655;28;20195;-75
2023/10/24 01:44:59;;;;;;;5.38;4.53;;;13.90;99.90;;;;;;5028744;28;20604;-75
2023/10/24 01:47:27;;;;;;;5.53;5.03;;;13.90;99.90;;;;;;5023479;28;20230;-74
2023/10/24 01:49:54;;;;;;;8.13;7.10;;;13.90;99.90;;;;;;5026231;28;20633;-74
2023/10/24 01:52:21;;;;;;;7.55;6.68;;;13.90;99.90;;;;;;5024762;28;20270;-75
2023/10/24 01:54:48;;;;;;;7.40;6.70;;;13.80;99.90;;;;;;5025445;28;20204;-75
2023/10/24 01:57:17;;;;;;;18.05;8.50;;;13.70;99.90;;;;;;5026420;28;20269;-75
2023/10/24 01:59:44;;;;;;;8.18;7.35;;;13.60;99.90;;;;;;5025976;28;20357;-75
2023/10/24 02:02:11;;;;;;;7.80;6.95;;;13.50;99.90;;;;;;5022484;28;20270;-75
2023/10/24 02:04:38;;;;;;;6.28;5.78;;;13.50;99.90;;;;;;5025329;28;20467;-75
2023/10/24 02:07:05;;;;;;;6.45;5.82;;;13.50;99.90;;;;;;5024558;28;20208;-75
2023/10/24 02:09:32;;;;;;;6.20;5.68;;;13.50;99.90;;;;;;5023958;28;20223;-75
2023/10/24 02:12:00;;;;;;;6.70;6.10;;;13.50;99.90;;;;;;5026978;28;20203;-75
2023/10/24 02:14:29;;;;;;;7.85;7.18;;;13.60;99.90;;;;;;5024139;28;20227;-74
2023/10/24 02:16:57;;;;;;;6.65;5.97;;;13.60;99.90;;;;;;5025893;28;20276;-75
2023/10/24 02:19:25;;;;;;;7.43;6.80;;;13.60;99.90;;;;;;5023866;28;20220;-75
2023/10/24 02:21:52;;;;;;;8.90;7.32;;;13.60;99.90;;;;;;5023757;28;20199;-72
2023/10/24 02:24:19;;;;;;;9.20;8.35;;;13.60;99.90;;;;;;5025819;28;20204;-74
2023/10/24 02:26:46;;;;;;;7.45;6.85;;;13.60;99.90;;;;;;5025233;28;20203;-75
2023/10/24 02:29:13;;;;;;;7.35;6.65;;;13.60;99.90;;;;;;5023101;28;20310;-74
2023/10/24 02:31:42;;;;;;;6.80;6.20;;;13.60;99.90;;;;;;5023016;28;20210;-73
2023/10/24 02:34:09;;;;;;;7.40;6.70;;;13.60;99.90;;;;;;5024925;28;20208;-74
2023/10/24 02:36:36;;;;;;;7.32;6.72;;;13.60;99.90;;;;;;5025566;28;20199;-74
2023/10/24 02:39:04;;;;;;;7.65;6.90;;;13.60;99.90;;;;;;5021909;28;20269;-75
2023/10/24 02:41:31;;;;;;;9.25;7.43;;;13.60;99.90;;;;;;5025867;28;20796;-75
2023/10/24 02:43:58;;;;;;;7.53;6.93;;;13.60;99.90;;;;;;5027909;28;20200;-75
2023/10/24 02:46:25;;;;;;;7.90;7.20;;;13.60;99.90;;;;;;5025022;28;20204;-76
2023/10/24 02:48:53;;;;;;;8.57;7.88;;;13.60;99.90;;;;;;5026609;28;20253;-75
2023/10/24 02:51:21;;;;;;;8.13;7.43;;;13.50;99.90;;;;;;5025923;28;20247;-74
2023/10/24 02:53:48;;;;;;;8.52;7.82;;;13.40;99.90;;;;;;5027623;28;20282;-75
2023/10/24 02:56:15;;;;;;;7.82;7.07;;;13.40;99.90;;;;;;5022185;28;20203;-74
2023/10/24 02:58:42;;;;;;;6.63;6.10;;;13.40;99.90;;;;;;5026024;28;20231;-74
2023/10/24 03:01:09;;;;;;;6.30;5.70;;;13.40;99.90;;;;;;5022619;28;20282;-73
2023/10/24 03:03:36;;;;;;;6.53;5.93;;;13.40;99.90;;;;;;5023527;28;20595;-75
2023/10/24 03:06:15;;;;;;;6.47;5.88;;;13.40;99.90;;;;;;5022621;28;20560;-74
2023/10/24 03:08:42;;;;;;;6.90;6.20;;;13.40;99.90;;;;;;5024675;28;20333;-74
2023/10/24 03:11:09;;;;;;;6.70;6.20;;;13.40;99.90;;;;;;5023775;28;20394;-76
2023/10/24 03:13:36;;;;;;;6.80;6.22;;;13.40;99.90;;;;;;5027004;28;20654;-75
2023/10/24 03:16:04;;;;;;;5.82;5.32;;;13.40;99.90;;;;;;5023241;28;20207;-76
2023/10/24 03:18:33;;;;;;;6.05;5.55;;;13.50;99.90;;;;;;5023229;28;20223;-75
2023/10/24 03:21:00;;;;;;;6.25;5.75;;;13.50;99.90;;;;;;5022898;28;20196;-76
2023/10/24 03:23:29;;;;;;;6.40;5.88;;;13.50;99.90;;;;;;5025137;28;20195;-76
2023/10/24 03:25:56;;;;;;;5.65;5.15;;;13.50;99.90;;;;;;5023131;28;20687;-76
2023/10/24 03:28:23;;;;;;;5.88;5.38;;;13.50;99.90;;;;;;5024824;28;20223;-76
2023/10/24 03:30:50;;;;;;;5.82;5.32;;;13.50;99.90;;;;;;5023292;28;20226;-75
2023/10/24 03:33:17;;;;;;;6.30;5.70;;;13.50;99.90;;;;;;5024060;28;20269;-76
2023/10/24 03:35:44;;;;;;;6.10;5.50;;;13.50;99.90;;;;;;5023730;28;20207;-76
2023/10/24 03:38:12;;;;;;;6.18;5.68;;;13.50;99.90;;;;;;5022078;28;20719;-75
2023/10/24 03:40:41;;;;;;;6.60;6.10;;;13.50;99.90;;;;;;5022363;28;20735;-75
2023/10/24 03:43:08;;;;;;;7.35;6.68;;;13.50;99.90;;;;;;5023907;28;20653;-75
2023/10/24 03:45:37;;;;;;;6.90;6.35;;;13.50;99.90;;;;;;5025053;28;20750;-75
2023/10/24 03:48:05;;;;;;;6.45;5.90;;;13.50;99.90;;;;;;5021170;28;20257;-75
2023/10/24 03:50:37;;;;;;;7.65;6.97;;;13.50;99.90;;;;;;5018110;28;20218;-75
2023/10/24 03:53:05;;;;;;;6.68;6.18;;;13.50;99.90;;;;;;5025764;28;20230;-75
2023/10/24 03:55:32;;;;;;;7.70;7.00;;;13.40;99.90;;;;;;5022103;28;20673;-75
2023/10/24 03:58:01;;;;;;;7.93;7.32;;;13.50;99.90;;;;;;5023576;28;20223;-75
2023/10/24 04:00:28;;;;;;;8.57;7.80;;;13.40;99.90;;;;;;5022255;28;20204;-75
2023/10/24 04:02:55;;;;;;;7.13;6.43;;;13.50;99.90;;;;;;5024519;28;20191;-76
2023/10/24 04:05:23;;;;;;;7.18;6.57;;;13.40;99.90;;;;;;5022411;28;20199;-75
2023/10/24 04:07:50;;;;;;;7.03;6.35;;;13.40;99.90;;;;;;5023797;28;20200;-76
2023/10/24 04:10:17;;;;;;;7.55;6.95;;;13.40;99.90;;;;;;5024472;28;20470;-75
2023/10/24 04:12:44;;;;;;;7.05;6.45;;;13.30;99.90;;;;;;5025803;28;20257;-75
2023/10/24 04:15:13;;;;;;;7.30;6.70;;;13.30;99.90;;;;;;5027161;28;20212;-76
2023/10/24 04:17:40;;;;;;;8.25;7.38;;;13.30;99.90;;;;;;5025188;28;20226;-76
2023/10/24 04:20:09;;;;;;;7.53;6.78;;;13.30;99.90;;;;;;5028520;28;20262;-75
2023/10/24 04:22:36;;;;;;;6.85;6.35;;;13.30;99.90;;;;;;5027319;28;20208;-76
2023/10/24 04:25:04;;;;;;;7.25;6.63;;;13.30;99.90;;;;;;5026751;28;20204;-75
2023/10/24 04:27:32;;;;;;;7.43;6.82;;;13.30;99.90;;;;;;5024851;28;20211;-75
2023/10/24 04:30:00;;;;;;;7.50;6.90;;;13.30;99.90;;;;;;5026499;28;20310;-76
2023/10/24 04:32:29;;;;;;;7.93;7.22;;;13.40;99.90;;;;;;5026934;28;20219;-75
2023/10/24 04:34:56;;;;;;;7.28;6.68;;;13.40;99.90;;;;;;5026352;28;20211;-76
2023/10/24 04:37:23;;;;;;;8.25;7.45;;;13.40;99.90;;;;;;5023624;28;20289;-75
2023/10/24 04:39:51;;;;;;;7.25;6.65;;;13.50;99.90;;;;;;5027111;28;20772;-75
2023/10/24 04:42:17;;;;;;;8.98;8.23;;;13.50;99.90;;;;;;5026954;28;20253;-76
2023/10/24 04:44:44;;;;;;;8.70;7.93;;;13.50;99.90;;;;;;5025910;28;20223;-75
2023/10/24 04:47:12;;;;;;;9.30;8.40;;;13.40;99.90;;;;;;5027388;28;20685;-75
2023/10/24 04:49:41;;;;;;;11.55;10.55;;;13.40;99.90;;;;;;5026908;28;20324;-76
2023/10/24 04:52:08;;;;;;;11.13;10.20;;;13.40;99.90;;;;;;5026387;28;20228;-76
2023/10/24 04:54:35;;;;;;;10.50;9.60;;;13.40;99.90;;;;;;5026639;28;20249;-75
2023/10/24 04:57:02;;;;;;;9.30;8.50;;;13.30;99.90;;;;;;5026639;28;20286;-75
2023/10/24 04:59:29;;;;;;;7.95;7.25;;;13.30;99.90;;;;;;5027011;28;20228;-75
2023/10/24 05:01:56;;;;;;;8.18;7.47;;;13.30;99.90;;;;;;5028237;28;20269;-75
2023/10/24 05:04:23;;;;;;;7.43;6.82;;;13.30;99.90;;;;;;5025054;28;20233;-74
2023/10/24 05:06:52;;;;;;;6.15;5.65;;;13.30;99.90;;;;;;5026780;28;20196;-74
2023/10/24 05:09:19;;;;;;;6.60;6.10;;;13.30;99.90;;;;;;5027872;28;20220;-76
2023/10/24 05:11:46;;;;;;;6.95;6.38;;;13.30;99.90;;;;;;5026280;28;20502;-76
2023/10/24 05:14:14;;;;;;;7.05;6.45;;;13.30;99.90;;;;;;5026880;28;20211;-75
2023/10/24 05:16:41;;;;;;;6.40;5.90;;;13.30;99.90;;;;;;5027009;28;20567;-76
2023/10/24 05:19:08;;;;;;;6.68;6.07;;;13.30;99.90;;;;;;5022677;28;20227;-76
2023/10/24 05:21:35;;;;;;;7.05;6.45;;;13.30;99.90;;;;;;5026446;28;20254;-75
2023/10/24 05:24:04;;;;;;;7.38;6.72;;;13.30;99.90;;;;;;5022701;28;20674;-74
2023/10/24 05:26:31;;;;;;;6.75;6.18;;;13.40;99.90;;;;;;5024472;28;20301;-74
2023/10/24 05:28:58;;;;;;;7.45;6.82;;;13.30;99.90;;;;;;5025742;28;20658;-75
2023/10/24 05:31:25;;;;;;;7.65;7.05;;;13.30;99.90;;;;;;5025258;28;20301;-74
2023/10/24 05:33:52;;;;;;;7.45;6.75;;;13.30;99.90;;;;;;5026562;28;20449;-74
2023/10/24 05:36:19;;;;;;;7.32;6.63;;;13.30;99.90;;;;;;5025923;28;20196;-75
2023/10/24 05:38:46;;;;;;;9.50;8.60;;;13.30;99.90;;;;;;5023323;28;20823;-75
2023/10/24 05:41:14;;;;;;;7.15;6.57;;;13.30;99.90;;;;;;5023302;28;20200;-75
2023/10/24 05:43:41;;;;;;;8.30;7.50;;;13.30;99.90;;;;;;5024600;28;20212;-75
2023/10/24 05:46:08;;;;;;;7.68;6.97;;;13.30;99.90;;;;;;5023647;28;20211;-76
2023/10/24 05:48:39;;;;;;;9.38;8.32;;;13.40;99.90;;;;;;5023608;28;20227;-75
2023/10/24 05:51:09;;;;;;;8.00;7.30;;;13.40;99.90;;;;;;5025668;28;23338;-75
2023/10/24 05:53:36;;;;;;;7.40;6.70;;;13.30;99.90;;;;;;5025091;28;20210;-76
2023/10/24 05:56:04;;;;;;;7.03;6.43;;;13.30;99.90;;;;;;5022830;28;20192;-75
2023/10/24 05:58:32;;;;;;;6.72;6.03;;;13.30;99.90;;;;;;5027054;28;20219;-76
2023/10/24 06:01:00;;;;;;;12.35;11.13;;;13.30;99.90;;;;;;5022644;28;20226;-75
2023/10/24 06:03:27;;;;;;;9.48;8.68;;;13.30;99.90;;;;;;5021678;28;20500;-76
2023/10/24 06:05:54;;;;;;;10.13;9.15;;;13.30;99.90;;;;;;5000960;28;20717;-74
2023/10/24 06:08:21;;;;;;;8.68;7.95;;;13.20;99.90;;;;;;5020378;28;20269;-74
2023/10/24 06:10:56;;;;;;;8.40;7.65;;;13.20;99.90;;;;;;5019388;28;20215;-76
2023/10/24 06:13:23;;;;;;;8.68;7.97;;;13.20;99.90;;;;;;5020124;28;20191;-75
2023/10/24 06:15:52;;;;;;;8.88;8.02;;;13.20;99.90;;;;;;5019527;28;20285;-75
2023/10/24 06:18:19;;;;;;;8.60;7.90;;;13.20;99.90;;;;;;5022385;28;20273;-75
2023/10/24 06:20:48;;;;;;;7.85;7.15;;;13.20;99.90;;;;;;5017935;28;20222;-75
2023/10/24 06:23:16;;;;;;;8.20;7.43;;;13.20;99.90;;;;;;5018780;28;20207;-76
2023/10/24 06:25:43;;;;;;;9.90;8.93;;;13.20;99.90;;;;;;5019206;28;20207;-76
2023/10/24 06:28:11;;;;;;;8.68;7.97;;;13.20;99.90;;;;;;5019575;28;20270;-74
2023/10/24 06:30:38;;;;;;;7.93;7.20;;;13.20;99.90;;;;;;5019434;28;20281;-75
2023/10/24 06:33:06;;;;;;;8.85;7.70;;;13.20;99.90;;;;;;5022890;28;20296;-74
2023/10/24 06:35:33;;;;;;;7.97;7.32;;;13.10;99.90;;;;;;5020565;28;20663;-75
2023/10/24 06:38:00;;;;;;;9.60;8.60;;;13.10;99.90;;;;;;5015716;28;20251;-75
2023/10/24 06:40:27;;;;;;;8.73;7.93;;;13.00;99.90;;;;;;5023374;28;20538;-76
2023/10/24 06:42:55;;;;;;;7.75;7.03;;;13.00;99.90;;;;;;5019766;28;20210;-75
2023/10/24 06:45:22;;;;;;;8.13;7.43;;;12.90;99.90;;;;;;5020959;28;20316;-76
2023/10/24 06:47:50;;;;;;;7.15;6.45;;;12.90;99.90;;;;;;5017776;28;20269;-76
2023/10/24 06:50:18;;;;;;;6.78;6.18;;;12.90;99.90;;;;;;5020122;28;20212;-76
2023/10/24 06:52:46;;;;;;;6.65;6.00;;;12.90;99.90;;;;;;5021012;28;20251;-76
2023/10/24 06:55:13;;;;;;;5.32;4.93;;;12.90;99.90;;;;;;5016115;28;20287;-76
2023/10/24 06:57:40;;;;;;;6.40;5.80;;;13.00;99.90;;;;;;5019145;28;20204;-77
2023/10/24 07:00:08;;;;;;;6.07;5.47;;;13.00;99.90;;;;;;5020348;28;20196;-75
2023/10/24 07:02:35;;;;;;;5.68;5.15;;;13.00;99.90;;;;;;5018984;28;20223;-75
2023/10/24 07:05:02;;;;;;;4.95;4.57;;;13.00;99.90;;;;;;5021296;28;20306;-75
2023/10/24 07:07:31;;;;;;;5.30;4.80;;;13.10;99.90;;;;;;5020863;28;20245;-75
2023/10/24 07:09:58;;;;;;;5.00;4.60;;;13.10;99.90;;;;;;5022693;28;20227;-74
2023/10/24 07:12:25;;;;;;;4.93;4.50;;;13.10;99.90;;;;;;5021314;28;20297;-76
2023/10/24 07:14:53;;;;;;;5.20;4.78;;;13.10;99.90;;;;;;5023249;28;20200;-73
2023/10/24 07:17:20;;;;;;;5.15;4.75;;;13.10;99.90;;;;;;5017991;28;20208;-75
2023/10/24 07:19:47;;;;;;;5.05;4.55;;;13.10;99.90;;;;;;5017149;28;20218;-74
2023/10/24 07:22:14;;;;;;;4.75;4.35;;;13.20;99.90;;;;;;5020936;28;20203;-74
2023/10/24 07:24:43;;;;;;;5.13;4.63;;;13.20;99.90;;;;;;5018031;28;20522;-75
2023/10/24 07:27:16;;;;;;;4.85;4.45;;;13.20;99.90;;;;;;5017778;28;20641;-75
2023/10/24 07:29:43;;;;;;;4.97;4.57;;;13.20;99.90;;;;;;5019058;28;20712;-74
2023/10/24 07:32:10;;;;;;;15.88;14.25;;;13.20;99.90;;;;;;5019853;28;20300;-76
2023/10/24 07:34:39;;;;;;;16.58;14.88;;;13.20;99.90;;;;;;5019352;28;20545;-75
2023/10/24 07:37:12;;;;;;;13.63;12.32;;;13.20;99.90;;;;;;5017763;28;20234;-74
2023/10/24 07:39:39;;;;;;;11.07;10.07;;;13.20;99.90;;;;;;5016900;28;20234;-73
2023/10/24 07:42:08;;;;;;;9.45;8.60;;;13.20;99.90;;;;;;5019587;28;20196;-75
2023/10/24 07:44:36;;;;;;;8.00;7.28;;;13.10;99.90;;;;;;5016624;28;20210;-74
2023/10/24 07:47:03;;;;;;;7.88;7.18;;;13.00;99.90;;;;;;5018055;28;20646;-76
2023/10/24 07:49:30;;;;;;;7.85;7.15;;;13.00;99.90;;;;;;5018716;28;20293;-75
2023/10/24 07:52:03;;;;;;;7.25;6.57;;;13.00;99.90;;;;;;5021852;28;20298;-75
2023/10/24 07:54:48;;;;;;;5.70;5.20;;;13.00;99.90;;;;;;5019059;28;20199;-75
2023/10/24 07:57:17;;;;;;;5.50;5.00;;;13.10;99.90;;;;;;5022727;28;20211;-76
2023/10/24 07:59:44;;;;;;;5.38;4.97;;;13.10;99.90;;;;;;5020887;28;20280;-77
2023/10/24 08:02:11;;;;;;;21.25;6.60;;;13.10;99.90;;;;;;5019066;28;20304;-76
2023/10/24 08:04:38;;;;;;;62.40;7.60;;;13.10;99.90;;;;;;5017338;28;20196;-75
2023/10/24 08:07:06;;;;;;;6.05;5.55;;;13.10;99.90;;;;;;5000401;28;20233;-76
2023/10/24 08:09:33;;;;;;;5.10;4.70;;;13.00;99.90;;;;;;5021138;28;20288;-74
2023/10/24 08:12:00;;;;;;;5.95;5.20;;;13.10;99.90;;;;;;5015286;28;20223;-77
2023/10/24 08:14:30;;;;;;;4.38;4.07;;;13.30;99.90;;;;;;5019174;28;20211;-79
2023/10/24 08:16:58;;;;;;;5.43;5.03;;;13.30;99.90;;;;;;5018083;28;20246;-77
2023/10/24 08:19:25;;;;;;;4.65;4.25;;;13.30;99.90;;;;;;5019638;28;20234;-76
2023/10/24 08:21:52;;;;;;;4.10;3.70;;;13.20;99.90;;;;;;5019008;28;20685;-77
2023/10/24 08:24:19;;;;;;;4.10;3.80;;;13.20;99.90;;;;;;5023807;28;20216;-79
2023/10/24 08:26:47;;;;;;;4.15;3.85;;;13.10;99.90;;;;;;5026313;28;20257;-78
2023/10/24 08:29:14;;;;;;;3.75;3.45;;;13.10;99.90;;;;;;5026509;28;20644;-78
2023/10/24 08:31:42;;;;;;;3.95;3.65;;;13.00;99.90;;;;;;5020240;28;20713;-78
2023/10/24 08:34:09;;;;;;;4.20;3.90;;;13.00;99.90;;;;;;5020277;28;20208;-78
2023/10/24 08:36:36;;;;;;;3.78;3.47;;;13.00;99.90;;;;;;5016794;28;20266;-78
2023/10/24 08:39:04;;;;;;;3.60;3.30;;;13.00;99.90;;;;;;5018909;28;20417;-79
2023/10/24 08:41:31;;;;;;;3.58;3.38;;;13.10;99.90;;;;;;5022630;28;20471;-78
2023/10/24 08:43:59;;;;;;;4.20;3.90;;;13.10;99.90;;;;;;5019604;28;20204;-76
2023/10/24 08:46:26;;;;;;;12.90;4.50;;;13.10;99.90;;;;;;5014757;28;20228;-77
2023/10/24 08:48:55;;;;;;;4.03;3.80;;;13.10;99.90;;;;;;5016906;28;20231;-77
2023/10/24 08:51:22;;;;;;;3.90;3.65;;;13.10;99.90;;;;;;5010971;28;20789;-77
2023/10/24 08:53:49;;;;;;;10.80;3.85;;;13.10;99.90;;;;;;5016405;28;20674;-77
2023/10/24 08:56:17;;;;;;;3.22;2.92;;;13.20;99.90;;;;;;5016360;28;20199;-77
2023/10/24 08:58:47;;;;;;;10.57;3.63;;;13.20;99.90;;;;;;5019255;28;20220;-77
2023/10/24 09:01:14;;;;;;;22.98;4.03;;;13.20;99.90;;;;;;5014257;28;20203;-77
2023/10/24 09:03:43;;;;;;;58.10;5.70;;;13.20;99.90;;;;;;5020092;28;20219;-77
2023/10/24 09:06:13;;;;;;;4.47;4.07;;;13.10;99.90;;;;;;5020752;28;20204;-77
2023/10/24 09:08:42;;;;;;;4.40;4.07;;;13.10;99.90;;;;;;5017898;28;20659;-77
2023/10/24 09:11:09;;;;;;;4.13;3.83;;;12.90;99.90;;;;;;5016828;28;20204;-77
2023/10/24 09:13:36;;;;;;;4.45;4.15;;;12.80;99.90;;;;;;5020314;28;20668;-77
2023/10/24 09:16:09;;;;;;;3.95;3.67;;;12.80;99.90;;;;;;5017549;28;20870;-76
2023/10/24 09:21:33;;;;;;;4.07;3.75;;;12.80;99.90;;;;;;5072859;28;20316;-80
2023/10/24 09:24:12;;;;;;;3.78;3.47;;;12.80;99.90;;;;;;5077040;28;20198;-83
2023/10/24 09:26:39;;;;;;;3.33;3.05;;;12.80;99.90;;;;;;5079533;28;20794;-75
2023/10/24 09:29:08;;;;;;;3.92;3.40;;;12.80;99.90;;;;;;5075096;28;20221;-79
2023/10/24 09:31:36;;;;;;;3.83;3.53;;;12.80;99.90;;;;;;5073633;28;20311;-74
2023/10/24 09:34:03;;;;;;;96.25;7.65;;;12.80;99.90;;;;;;5078324;28;20247;-81
2023/10/24 09:36:29;;;;;;;147.73;12.50;;;12.80;99.90;;;;;;5079489;28;20209;-78
2023/10/24 09:38:58;;;;;;;44.45;6.35;;;12.60;99.90;;;;;;5081413;28;20221;-80
2023/10/24 09:41:26;;;;;;;3.60;3.30;;;12.60;99.90;;;;;;5075697;28;20204;-79
2023/10/24 09:43:55;;;;;;;3.35;3.15;;;12.50;99.90;;;;;;5080106;28;21006;-77
2023/10/24 09:46:25;;;;;;;3.53;3.22;;;12.60;99.90;;;;;;5079596;28;20802;-82
2023/10/24 09:48:55;;;;;;;4.10;3.28;;;12.70;99.90;;;;;;5078668;28;20295;-80
2023/10/24 09:51:23;;;;;;;4.45;3.65;;;12.80;99.90;;;;;;5080177;28;20229;-82
2023/10/24 09:53:50;;;;;;;6.60;6.00;;;12.70;99.90;;;;;;5079328;28;20250;-81
2023/10/24 09:56:20;;;;;;;7.13;6.53;;;12.60;99.90;;;;;;5080051;28;20288;-77
2023/10/24 09:58:48;;;;;;;17.70;16.20;;;12.50;99.90;;;;;;5082763;28;20221;-81
2023/10/24 10:01:14;;;;;;;17.90;16.45;;;12.50;99.90;;;;;;5076559;28;20201;-80
2023/10/24 10:03:43;;;;;;;13.52;12.52;;;12.50;99.90;;;;;;5077514;28;20197;-81
2023/10/24 10:06:13;;;;;;;10.88;9.88;;;12.50;99.90;;;;;;5080205;28;20211;-85
2023/10/24 10:08:42;;;;;;;7.68;7.07;;;12.60;99.90;;;;;;5080367;28;20243;-77
2023/10/24 10:14:16;;;;;;;4.90;4.60;;;12.60;99.90;;;;;;5102477;27;20527;-77
2023/10/24 10:16:52;;;;;;;4.60;4.30;;;12.60;99.90;;;;;;5072666;28;20201;-77
2023/10/24 10:19:47;;;;;;;4.15;3.90;;;12.70;99.90;;;;;;5071729;28;20708;-77
2023/10/24 10:22:33;;;;;;;3.83;3.53;;;12.80;99.90;;;;;;5075378;28;20198;-76
2023/10/24 10:25:24;;;;;;;3.45;3.25;;;12.90;99.90;;;;;;5075637;28;20205;-77
2023/10/24 10:27:59;;;;;;;3.22;3.03;;;13.00;99.90;;;;;;5071326;28;20226;-77
2023/10/24 10:30:37;;;;;;;3.15;2.95;;;13.10;99.90;;;;;;5075203;28;20250;-77
2023/10/24 10:33:11;;;;;;;3.97;3.67;;;13.20;99.90;;;;;;5073928;28;20221;-77
2023/10/24 10:35:48;;;;;;;3.42;3.13;;;13.10;99.90;;;;;;5068169;28;20696;-75
2023/10/24 10:38:25;;;;;;;3.30;3.05;;;13.10;99.90;;;;;;5070956;28;20389;-77
2023/10/24 10:40:52;;;;;;;3.33;3.03;;;13.10;99.90;;;;;;5074080;28;20625;-76
2023/10/24 10:43:31;;;;;;;3.10;2.90;;;13.10;99.90;;;;;;5077562;28;20190;-78
2023/10/24 10:46:17;;;;;;;3.70;2.72;;;13.10;99.90;;;;;;5069209;28;20202;-76
2023/10/24 10:48:44;;;;;;;3.80;3.53;;;13.20;99.90;;;;;;5071906;28;20284;-77
2023/10/24 10:51:13;;;;;;;3.72;3.42;;;13.20;99.90;;;;;;5077570;28;20194;-76
2023/10/24 10:53:48;;;;;;;3.17;2.97;;;13.20;99.90;;;;;;5074895;28;20221;-77
2023/10/24 10:56:19;;;;;;;3.40;3.20;;;13.30;99.90;;;;;;5074115;28;20205;-78
2023/10/24 10:59:22;;;;;;;3.38;3.17;;;13.30;99.90;;;;;;5073750;28;20253;-76
2023/10/24 11:02:01;;;;;;;3.45;3.15;;;13.30;99.90;;;;;;5073427;28;20213;-77
2023/10/24 11:04:29;;;;;;;8.32;3.92;;;13.30;99.90;;;;;;5070447;28;20915;-76
2023/10/24 11:06:57;;;;;;;8.70;4.45;;;13.40;99.90;;;;;;5073044;28;20673;-78
2023/10/24 11:09:28;;;;;;;7.15;4.03;;;13.30;99.90;;;;;;5071311;28;20303;-74
2023/10/24 11:12:27;;;;;;;3.92;3.63;;;13.30;99.90;;;;;;5069941;28;20289;-78
2023/10/24 11:15:23;;;;;;;3.38;3.10;;;13.30;99.90;;;;;;5077082;28;20193;-78
2023/10/24 11:17:52;;;;;;;16.27;6.32;;;13.30;99.90;;;;;;5070553;28;20291;-77
2023/10/24 11:20:20;;;;;;;41.67;22.15;;;13.30;99.90;;;;;;5071756;28;20260;-77
2023/10/24 11:22:47;;;;;;;30.80;14.65;;;13.70;99.90;;;;;;5072889;28;20202;-75
2023/10/24 11:25:15;;;;;;;17.95;10.63;;;13.80;99.90;;;;;;5056981;28;20206;-78
2023/10/24 11:27:43;;;;;;;14.57;8.80;;;13.80;99.90;;;;;;5052991;28;20273;-75
2023/10/24 11:30:11;;;;;;;11.50;6.10;;;13.60;99.90;;;;;;5055277;28;20202;-76
2023/10/24 11:32:38;;;;;;;8.15;5.68;;;13.50;99.90;;;;;;5051952;28;20223;-77
2023/10/24 11:35:07;;;;;;;5.18;4.65;;;13.40;99.90;;;;;;5054897;28;20248;-78
2023/10/24 11:37:34;;;;;;;4.75;4.30;;;13.30;99.90;;;;;;5059679;28;20259;-77
2023/10/24 11:40:01;;;;;;;4.40;4.00;;;13.20;99.90;;;;;;5057391;28;20247;-78
2023/10/24 11:42:28;;;;;;;9.43;3.90;;;13.20;99.90;;;;;;5057094;28;20256;-78
2023/10/24 11:44:55;;;;;;;3.30;3.00;;;13.20;99.90;;;;;;5062674;28;20269;-78
2023/10/24 11:47:22;;;;;;;3.22;2.97;;;13.10;99.90;;;;;;5055801;28;20209;-77
2023/10/24 11:49:50;;;;;;;3.50;3.17;;;13.10;99.90;;;;;;5056857;28;20215;-77
2023/10/24 11:52:18;;;;;;;3.25;3.00;;;13.30;99.90;;;;;;5057623;28;20222;-77
2023/10/24 11:54:51;;;;;;;2.90;2.70;;;13.40;99.90;;;;;;5052051;28;20283;-76
2023/10/24 11:57:19;;;;;;;3.88;2.85;;;13.50;99.90;;;;;;5057233;28;20207;-76
2023/10/24 11:59:48;;;;;;;2.83;2.65;;;13.60;99.90;;;;;;5058540;28;20340;-77
2023/10/24 12:02:16;;;;;;;2.88;2.67;;;13.60;99.90;;;;;;5055689;28;20744;-78
2023/10/24 12:04:50;;;;;;;2.38;2.28;;;13.70;99.90;;;;;;5058212;28;20214;-77
2023/10/24 12:07:18;;;;;;;2.70;2.50;;;13.70;99.90;;;;;;5057554;28;20289;-78
2023/10/24 12:09:45;;;;;;;10.77;3.25;;;13.80;99.90;;;;;;5058047;28;20294;-77
2023/10/24 12:12:14;;;;;;;97.40;7.30;;;13.80;99.90;;;;;;5056251;28;20276;-77
2023/10/24 12:14:42;;;;;;;92.70;7.50;;;13.80;99.90;;;;;;5053609;28;20202;-78
2023/10/24 12:17:11;;;;;;;84.82;7.70;;;13.70;99.90;;;;;;5057858;28;20244;-76
2023/10/24 12:19:38;;;;;;;25.95;4.10;;;13.50;99.90;;;;;;5059185;28;20785;-77
2023/10/24 12:22:05;;;;;;;3.63;3.33;;;13.40;99.90;;;;;;5057574;28;20710;-76
2023/10/24 12:24:34;;;;;;;4.03;3.40;;;13.30;99.90;;;;;;5055760;28;20197;-77
2023/10/24 12:27:01;;;;;;;3.75;3.47;;;13.40;99.90;;;;;;5056613;28;20227;-76
2023/10/24 12:29:27;;;;;;;3.35;3.15;;;13.40;99.90;;;;;;5057106;28;20226;-77
2023/10/24 12:31:54;;;;;;;3.72;3.42;;;13.50;99.90;;;;;;5057259;28;20783;-76
2023/10/24 12:34:21;;;;;;;8.02;3.33;;;13.70;99.90;;;;;;5059893;28;20210;-77
2023/10/24 12:36:50;;;;;;;15.48;4.20;;;13.70;99.90;;;;;;5055399;28;20260;-76
2023/10/24 12:39:21;;;;;;;4.13;3.72;;;13.70;99.90;;;;;;5054749;28;20222;-77
2023/10/24 12:41:49;;;;;;;3.90;3.60;;;13.60;99.90;;;;;;5054917;28;20732;-77
2023/10/24 12:44:17;;;;;;;3.83;3.53;;;13.60;99.90;;;;;;5057461;28;20627;-77
2023/10/24 12:46:44;;;;;;;4.25;3.95;;;13.60;99.90;;;;;;5056528;28;20267;-78
2023/10/24 12:49:11;;;;;;;21.50;4.70;;;13.60;99.90;;;;;;5055395;28;20589;-79
2023/10/24 12:51:38;;;;;;;46.35;5.20;;;13.60;99.90;;;;;;5055759;28;20194;-77
2023/10/24 12:54:05;;;;;;;17.98;4.60;;;13.60;99.90;;;;;;5053509;28;20214;-75
2023/10/24 12:56:32;;;;;;;31.40;4.22;;;13.50;99.90;;;;;;5053104;28;20235;-76
2023/10/24 12:59:01;;;;;;;7.88;4.07;;;13.50;99.90;;;;;;5053954;28;20249;-76